עמוד ראשי
METAR-TAF:

METAR-TAF

שדות תעופה :

קאיין, גיאנה הצרפתית

קו רוחב: 04-50N, קו אורך: 052-22W, גובה: 105מטר

תצפית מזג אוויר נוכחית

הדו"ח נערך לפני 16דקות, בשעה 08:30 UTC
רוח רגועה
טמפרטורת 21 צלסיוס
לחות 100%
לחץ 1011 hPa
ראות 10 קילומטר או יותר
ללא עננים שבסיסם נמוך מ 5000 רגל או קומולונימבוס

METAR: SOCA 280830Z AUTO 00000KT CAVOK 21/21 Q1011 NOSIG

זמן: 05:46 (08:46 UTC)

תחזית

הדו"ח נערך לפני 3 שעות ו 46דקות, בשעה 05:00 UTC
תחזית בתוקף מ 28 ב 06 UTC עד 29 ב 06 UTC
רוח 2קשר עם כיוונים משתנים
ראות 10 קילומטר או יותר
עננים פזורים בגובה 3000רגל
יעשה מ
28 ב 12 UTC עד 28 ב 14 UTC
רוח 10קשר מכיוון צפון-מזרח
יעשה מ
28 ב 22 UTC עד 28 ב 24 UTC
רוח 2קשר עם כיוונים משתנים

TAF: SOCA 280500Z 2806/2906 VRB02KT 9999 SCT030 BECMG 2812/2814 05010KT BECMG 2822/2824 VRB02KT

תצפיות ותחזיות מזג אוויר לגבי יותר מ- 4,000 שדות תעופה ברחבי העולם. דוחות METAR ו- TAF.

התחנות הזמינות מסומנות בנקודות צהובות ואדומות על גבי המפה.

העבר את העכבר לנקודה הצבעונית על מנת לראות את שם התחנה.

לאחר מכן, לחץ כדי לראות את תוכן ואת תחזיות מזג האוויר.

כדי לשנות את המפה: לחץ על הכפתורים הירוקים עם הפלוס השחור כדי להתקרב; על הכפתור הירוק עם המקף כדי להתרחק; או בחיצים הירוקים למפות סמוכות.


METAR-TAF: